Time;durP1;ratioP1;P1;durP2;ratioP2;P2;SDS_P1;SDS_P2;PMS_P1;PMS_P2;Temp;Humidity;BMP_temperature;BMP_pressure;BME280_temperature;BME280_humidity;BME280_pressure;Samples;Min_cycle;Max_cycle;Signal;HPM_P1;HPM_P2
2022/05/29 00:01:46;;;;;;;;;;;19.60;62.50;;;;;;5122927;28;19915;-79
2022/05/29 00:04:11;;;;;;;;;;;19.60;62.50;;;;;;5108062;28;19907;-78
2022/05/29 00:06:41;;;;;;;;;;;19.50;62.40;;;;;;5113424;28;19958;-78
2022/05/29 00:09:09;;;;;;;;;;;19.20;62.20;;;;;;5095282;28;20413;-78
2022/05/29 00:11:34;;;;;;;;;;;19.50;62.80;;;;;;5113360;28;20282;-78
2022/05/29 00:14:00;;;;;;;;;;;19.40;62.70;;;;;;5094857;28;19916;-78
2022/05/29 00:16:29;;;;;;;;;;;19.20;62.70;;;;;;5113369;28;19916;-78
2022/05/29 00:18:55;;;;;;;;;;;19.10;62.20;;;;;;5112770;28;20365;-78
2022/05/29 00:21:21;;;;;;;;;;;19.10;62.50;;;;;;5094925;28;19908;-78
2022/05/29 00:23:49;;;;;;;;;;;19.10;62.50;;;;;;5112851;28;19911;-78
2022/05/29 00:26:16;;;;;;;;;;;19.10;63.00;;;;;;5094918;28;19904;-78
2022/05/29 00:28:42;;;;;;;;;;;19.00;62.60;;;;;;5112803;28;19908;-78
2022/05/29 00:31:07;;;;;;;;;;;19.10;62.80;;;;;;5112930;28;19904;-78
2022/05/29 00:33:33;;;;;;;;;;;19.10;62.90;;;;;;5112821;28;19912;-78
2022/05/29 00:35:58;;;;;;;;;;;19.00;63.20;;;;;;5112809;28;19912;-78
2022/05/29 00:38:24;;;;;;;;;;;19.10;63.30;;;;;;5112742;28;20318;-78
2022/05/29 00:41:05;;;;;;;;;;;18.80;63.30;;;;;;5094284;28;20011;-78
2022/05/29 00:43:30;;;;;;;;;;;18.80;63.10;;;;;;5094334;28;19918;-78
2022/05/29 00:45:57;;;;;;;;;;;19.00;63.80;;;;;;5112595;28;19908;-77
2022/05/29 00:48:23;;;;;;;;;;;18.80;63.40;;;;;;5112639;28;19908;-78
2022/05/29 00:50:49;;;;;;;;;;;18.80;63.60;;;;;;5112303;28;20010;-78
2022/05/29 00:53:15;;;;;;;;;;;18.90;63.60;;;;;;5094102;28;19923;-78
2022/05/29 00:55:45;;;;;;;;;;;18.70;63.60;;;;;;5112397;28;20086;-78
2022/05/29 00:58:11;;;;;;;;;;;18.90;63.70;;;;;;5112559;28;19907;-78
2022/05/29 01:00:36;;;;;;;;;;;18.60;63.50;;;;;;5093936;28;19915;-79
2022/05/29 01:03:02;;;;;;;;;;;18.80;63.90;;;;;;5112844;28;19994;-78
2022/05/29 01:05:29;;;;;;;;;;;18.70;63.50;;;;;;5112353;28;19919;-78
2022/05/29 01:08:01;;;;;;;;;;;18.80;63.40;;;;;;5112815;28;20373;-79
2022/05/29 01:10:33;;;;;;;;;;;18.60;64.30;;;;;;5112262;28;19915;-79
2022/05/29 01:12:58;;;;;;;;;;;18.10;66.70;;;;;;5094426;28;19908;-79
2022/05/29 01:15:37;;;;;;;;;;;18.10;65.90;;;;;;5093859;28;19914;-79
2022/05/29 01:18:31;;;;;;;;;;;18.30;65.20;;;;;;5112665;28;20393;-78
2022/05/29 01:21:10;;;;;;;;;;;18.40;64.80;;;;;;5072343;28;19908;-78
2022/05/29 01:23:55;;;;;;;;;;;18.40;64.60;;;;;;5112169;28;19998;-79
2022/05/29 01:26:41;;;;;;;;;;;18.40;64.70;;;;;;5094104;28;19907;-79
2022/05/29 01:29:10;;;;;;;;;;;18.70;65.10;;;;;;5076053;28;20391;-79
2022/05/29 01:31:43;;;;;;;;;;;18.40;64.90;;;;;;5093835;28;19908;-79
2022/05/29 01:34:11;;;;;;;;;;;18.40;64.80;;;;;;5112467;28;19919;-79
2022/05/29 01:36:52;;;;;;;;;;;18.40;64.80;;;;;;5093840;28;19915;-79
2022/05/29 01:39:30;;;;;;;;;;;18.40;64.80;;;;;;5093626;28;19911;-78
2022/05/29 01:41:57;;;;;;;;;;;18.30;64.90;;;;;;5111926;28;19908;-78
2022/05/29 01:44:45;;;;;;;;;;;18.50;65.30;;;;;;5111874;28;19908;-79
2022/05/29 01:47:16;;;;;;;;;;;18.30;64.90;;;;;;5111955;28;20386;-78
2022/05/29 01:49:53;;;;;;;;;;;18.40;65.00;;;;;;5111453;28;19912;-78
2022/05/29 01:52:21;;;;;;;;;;;18.40;65.10;;;;;;5111807;28;20344;-78
2022/05/29 01:54:52;;;;;;;;;;;18.30;65.10;;;;;;5111621;28;19927;-78
2022/05/29 01:57:20;;;;;;;;;;;18.50;65.20;;;;;;5111883;28;19912;-78
2022/05/29 01:59:52;;;;;;;;;;;18.40;65.30;;;;;;5093122;28;19976;-78
2022/05/29 02:02:20;;;;;;;;;;;18.30;65.10;;;;;;5111846;28;19908;-78
2022/05/29 02:04:47;;;;;;;;;;;18.50;65.30;;;;;;5093364;28;19912;-77
2022/05/29 02:10:13;;;;;;;;;;;18.50;65.80;;;;;;5111777;28;19961;-78
2022/05/29 02:12:45;;;;;;;;;;;18.20;65.40;;;;;;5093897;28;20423;-77
2022/05/29 02:15:14;;;;;;;;;;;18.30;65.70;;;;;;5093937;28;19904;-78
2022/05/29 02:17:42;;;;;;;;;;;18.40;66.20;;;;;;5093708;28;19962;-78
2022/05/29 02:20:10;;;;;;;;;;;18.10;65.90;;;;;;5093458;28;20015;-78
2022/05/29 02:22:36;;;;;;;;;;;18.10;65.80;;;;;;5115833;28;19911;-78
2022/05/29 02:27:35;;;;;;;;;;;18.10;65.70;;;;;;5115556;28;19924;-80
2022/05/29 02:30:03;;;;;;;;;;;18.10;65.90;;;;;;5120453;28;19977;-79
2022/05/29 02:32:28;;;;;;;;;;;18.10;66.00;;;;;;5119331;28;19914;-79
2022/05/29 02:35:02;;;;;;;;;;;18.20;66.20;;;;;;5120712;28;19908;-80
2022/05/29 02:37:27;;;;;;;;;;;18.10;66.00;;;;;;5098919;28;19916;-80
2022/05/29 02:39:56;;;;;;;;;;;18.10;66.00;;;;;;5098312;28;19957;-79
2022/05/29 02:42:27;;;;;;;;;;;18.20;66.20;;;;;;5095440;28;20367;-77
2022/05/29 02:45:14;;;;;;;;;;;18.30;66.30;;;;;;5095329;28;19923;-77
2022/05/29 02:47:44;;;;;;;;;;;18.00;65.90;;;;;;5098555;28;19908;-78
2022/05/29 02:50:31;;;;;;;;;;;18.10;66.20;;;;;;5099350;28;19912;-79
2022/05/29 02:53:00;;;;;;;;;;;18.00;65.90;;;;;;5098509;28;19915;-78
2022/05/29 02:55:26;;;;;;;;;;;18.00;65.90;;;;;;5097747;28;19935;-78
2022/05/29 02:57:53;;;;;;;;;;;18.20;66.30;;;;;;5099630;28;20367;-78
2022/05/29 03:00:19;;;;;;;;;;;17.90;65.80;;;;;;5098873;28;19956;-78
2022/05/29 03:03:03;;;;;;;;;;;17.90;66.20;;;;;;5097316;28;19977;-78
2022/05/29 03:05:47;;;;;;;;;;;17.90;65.90;;;;;;5095958;28;20290;-77
2022/05/29 03:08:16;;;;;;;;;;;17.90;66.20;;;;;;5096424;28;19908;-78
2022/05/29 03:10:47;;;;;;;;;;;17.90;66.00;;;;;;5095003;28;19908;-77
2022/05/29 03:13:27;;;;;;;;;;;17.90;66.10;;;;;;5095325;28;19908;-77
2022/05/29 03:15:58;;;;;;;;;;;17.90;66.20;;;;;;5096094;28;19913;-78
2022/05/29 03:18:42;;;;;;;;;;;17.90;66.20;;;;;;5095208;28;19914;-78
2022/05/29 03:21:18;;;;;;;;;;;17.90;66.20;;;;;;5093287;28;19914;-78
2022/05/29 03:24:02;;;;;;;;;;;17.80;66.20;;;;;;5094715;28;19908;-78
2022/05/29 03:26:39;;;;;;;;;;;17.80;66.10;;;;;;5094458;28;19923;-78
2022/05/29 03:29:07;;;;;;;;;;;17.80;66.00;;;;;;5094336;28;20500;-78
2022/05/29 03:31:34;;;;;;;;;;;17.90;66.20;;;;;;5094647;28;19915;-78
2022/05/29 03:33:59;;;;;;;;;;;17.80;65.90;;;;;;5093229;28;20383;-78
2022/05/29 03:36:25;;;;;;;;;;;17.80;65.80;;;;;;5095979;28;19957;-78
2022/05/29 03:38:51;;;;;;;;;;;17.90;65.80;;;;;;5096771;28;19956;-77
2022/05/29 03:41:27;;;;;;;;;;;18.10;66.00;;;;;;5094171;28;20282;-78
2022/05/29 03:43:52;;;;;;;;;;;17.80;65.50;;;;;;5094119;28;19908;-78
2022/05/29 03:46:18;;;;;;;;;;;17.80;65.60;;;;;;5094026;28;20371;-78
2022/05/29 03:48:43;;;;;;;;;;;18.00;65.70;;;;;;5093783;28;19948;-78
2022/05/29 03:51:08;;;;;;;;;;;17.70;65.30;;;;;;5094016;28;19970;-78
2022/05/29 03:53:35;;;;;;;;;;;18.00;65.60;;;;;;5093924;28;19912;-78
2022/05/29 03:56:01;;;;;;;;;;;17.80;65.20;;;;;;5093879;28;19916;-78
2022/05/29 03:58:26;;;;;;;;;;;17.80;65.10;;;;;;5092293;28;19973;-79
2022/05/29 04:00:52;;;;;;;;;;;17.70;65.30;;;;;;5093840;28;19935;-78
2022/05/29 04:03:18;;;;;;;;;;;17.70;65.10;;;;;;5092408;28;20432;-79
2022/05/29 04:05:43;;;;;;;;;;;17.70;65.00;;;;;;5093711;28;19915;-79
2022/05/29 04:13:39;;;;;;;;;;;17.80;65.00;;;;;;5097574;28;20445;-78
2022/05/29 04:16:05;;;;;;;;;;;17.70;65.20;;;;;;5094477;28;19944;-77
2022/05/29 04:18:30;;;;;;;;;;;17.80;65.20;;;;;;5095843;28;19914;-77
2022/05/29 04:20:55;;;;;;;;;;;17.70;65.30;;;;;;5094594;28;19912;-77
2022/05/29 04:23:21;;;;;;;;;;;17.80;65.40;;;;;;5096069;28;19934;-77
2022/05/29 04:25:47;;;;;;;;;;;17.90;65.50;;;;;;5097478;28;19921;-79
2022/05/29 04:28:12;;;;;;;;;;;17.80;65.70;;;;;;5096075;28;20539;-78
2022/05/29 04:30:38;;;;;;;;;;;17.80;65.80;;;;;;5095130;28;19987;-79
2022/05/29 04:33:03;;;;;;;;;;;17.80;65.50;;;;;;5097896;28;19975;-78
2022/05/29 04:35:31;;;;;;;;;;;17.80;65.70;;;;;;5098319;28;19982;-79
2022/05/29 04:37:57;;;;;;;;;;;17.70;65.30;;;;;;5098486;28;19934;-79
2022/05/29 04:40:22;;;;;;;;;;;17.80;65.70;;;;;;5095189;28;19908;-77
2022/05/29 04:42:48;;;;;;;;;;;17.70;65.40;;;;;;5093597;28;19908;-77
2022/05/29 04:45:13;;;;;;;;;;;17.90;65.60;;;;;;5096990;28;19915;-77
2022/05/29 04:47:39;;;;;;;;;;;17.80;65.40;;;;;;5097979;28;20401;-78
2022/05/29 04:50:05;;;;;;;;;;;17.90;65.50;;;;;;5096660;28;19965;-78
2022/05/29 04:52:30;;;;;;;;;;;17.80;65.20;;;;;;5097360;28;19955;-78
2022/05/29 04:54:56;;;;;;;;;;;17.90;65.30;;;;;;5099001;28;19915;-78
2022/05/29 04:57:22;;;;;;;;;;;17.80;65.00;;;;;;5095556;28;19965;-77
2022/05/29 04:59:47;;;;;;;;;;;17.90;64.70;;;;;;5092694;28;19933;-77
2022/05/29 05:02:13;;;;;;;;;;;18.10;64.70;;;;;;5092048;28;19915;-78
2022/05/29 05:04:38;;;;;;;;;;;18.20;64.80;;;;;;5093925;28;19909;-78
2022/05/29 05:07:04;;;;;;;;;;;17.90;64.40;;;;;;5092417;28;19916;-78
2022/05/29 05:09:30;;;;;;;;;;;18.10;64.50;;;;;;5092402;28;20004;-78
2022/05/29 05:11:56;;;;;;;;;;;18.10;64.40;;;;;;5092671;28;19908;-79
2022/05/29 05:14:22;;;;;;;;;;;18.20;64.20;;;;;;5092478;28;19908;-78
2022/05/29 05:16:48;;;;;;;;;;;18.30;64.10;;;;;;5091647;28;19919;-78
2022/05/29 05:19:14;;;;;;;;;;;18.40;64.50;;;;;;5091187;28;19908;-77
2022/05/29 05:21:39;;;;;;;;;;;18.20;63.90;;;;;;5092613;28;20381;-78
2022/05/29 05:24:05;;;;;;;;;;;18.50;64.20;;;;;;5093308;28;19915;-79
2022/05/29 05:26:32;;;;;;;;;;;18.40;64.30;;;;;;5090796;28;21554;-79
2022/05/29 05:28:59;;;;;;;;;;;18.40;64.50;;;;;;5091104;28;19938;-79
2022/05/29 05:31:27;;;;;;;;;;;18.40;64.10;;;;;;5093011;28;19912;-79
2022/05/29 05:33:52;;;;;;;;;;;18.50;64.30;;;;;;5091176;28;20325;-79
2022/05/29 05:36:18;;;;;;;;;;;18.40;64.20;;;;;;5092883;28;19912;-79
2022/05/29 05:38:44;;;;;;;;;;;18.40;63.70;;;;;;5092223;28;20353;-77
2022/05/29 05:41:10;;;;;;;;;;;18.50;64.10;;;;;;5090956;28;19962;-77
2022/05/29 05:43:36;;;;;;;;;;;18.50;64.30;;;;;;5092132;28;19909;-78
2022/05/29 05:46:05;;;;;;;;;;;18.60;63.90;;;;;;5092208;28;20326;-78
2022/05/29 05:48:31;;;;;;;;;;;18.50;63.60;;;;;;5090634;28;19908;-78
2022/05/29 05:50:57;;;;;;;;;;;18.70;64.20;;;;;;5092343;28;20435;-79
2022/05/29 05:53:23;;;;;;;;;;;18.60;63.90;;;;;;5091628;28;20393;-78
2022/05/29 05:55:49;;;;;;;;;;;18.80;63.50;;;;;;5093038;28;19912;-79
2022/05/29 05:58:14;;;;;;;;;;;18.70;63.50;;;;;;5097353;28;19915;-77
2022/05/29 06:00:39;;;;;;;;;;;19.00;64.00;;;;;;5098572;28;19964;-78
2022/05/29 06:03:05;;;;;;;;;;;18.90;64.00;;;;;;5100395;28;19908;-79
2022/05/29 06:05:30;;;;;;;;;;;18.90;64.00;;;;;;5095429;28;19909;-78
2022/05/29 06:07:56;;;;;;;;;;;19.10;63.90;;;;;;5095289;28;19959;-78
2022/05/29 06:10:21;;;;;;;;;;;20.10;62.60;;;;;;5102137;28;19908;-78
2022/05/29 06:12:47;;;;;;;;;;;20.80;61.20;;;;;;5102993;28;19936;-78
2022/05/29 06:15:12;;;;;;;;;;;20.20;61.60;;;;;;5098424;28;19908;-78
2022/05/29 06:17:38;;;;;;;;;;;19.70;62.10;;;;;;5099433;28;19912;-78
2022/05/29 06:20:04;;;;;;;;;;;19.50;62.40;;;;;;5096298;28;19908;-78
2022/05/29 06:22:29;;;;;;;;;;;19.30;63.10;;;;;;5097257;28;19908;-78
2022/05/29 06:24:55;;;;;;;;;;;19.30;63.10;;;;;;5095869;28;20278;-78
2022/05/29 06:27:20;;;;;;;;;;;19.30;63.50;;;;;;5097075;28;19923;-80
2022/05/29 06:29:46;;;;;;;;;;;19.30;63.70;;;;;;5097718;28;19908;-79
2022/05/29 06:32:15;;;;;;;;;;;19.40;63.90;;;;;;5097750;28;19908;-81
2022/05/29 06:34:40;;;;;;;;;;;19.10;64.00;;;;;;5098159;28;19908;-80
2022/05/29 06:37:06;;;;;;;;;;;19.30;63.70;;;;;;5099115;28;19962;-79
2022/05/29 06:39:33;;;;;;;;;;;19.10;63.80;;;;;;5097169;28;19938;-79
2022/05/29 06:41:59;;;;;;;;;;;19.20;63.40;;;;;;5096910;28;19908;-79
2022/05/29 06:44:24;;;;;;;;;;;19.50;64.50;;;;;;5098940;28;20287;-79
2022/05/29 06:46:50;;;;;;;;;;;19.20;63.70;;;;;;5098876;28;19919;-79
2022/05/29 06:49:15;;;;;;;;;;;19.50;63.80;;;;;;5096291;28;19915;-81
2022/05/29 06:51:41;;;;;;;;;;;19.30;63.50;;;;;;5088922;28;19919;-78
2022/05/29 06:54:06;;;;;;;;;;;19.30;63.30;;;;;;5072773;28;19916;-79
2022/05/29 06:56:32;;;;;;;;;;;19.20;63.60;;;;;;5073549;28;19917;-79
2022/05/29 06:58:58;;;;;;;;;;;19.60;63.80;;;;;;5071861;28;20382;-79
2022/05/29 07:07:00;;;;;;;;;;;19.10;66.40;;;;;;5075031;28;19962;-80
2022/05/29 07:09:31;;;;;;;;;;;19.30;68.10;;;;;;5071613;28;20288;-81
2022/05/29 07:12:05;;;;;;;;;;;19.40;68.70;;;;;;5075271;28;20070;-82
2022/05/29 07:14:31;;;;;;;;;;;19.50;68.70;;;;;;5072050;28;19991;-82
2022/05/29 07:16:57;;;;;;;;;;;19.70;69.30;;;;;;5072602;28;19919;-81
2022/05/29 07:19:25;;;;;;;;;;;20.10;69.80;;;;;;5073061;28;19909;-82
2022/05/29 07:21:54;;;;;;;;;;;20.10;69.80;;;;;;5076338;28;19916;-81
2022/05/29 07:24:20;;;;;;;;;;;19.80;69.50;;;;;;5074122;28;19927;-83
2022/05/29 07:26:45;;;;;;;;;;;19.80;69.60;;;;;;5082089;28;19917;-83
2022/05/29 07:29:12;;;;;;;;;;;19.90;69.40;;;;;;5079429;28;20250;-82
2022/05/29 07:31:37;;;;;;;;;;;20.10;69.50;;;;;;5075672;28;20372;-83
2022/05/29 07:34:02;;;;;;;;;;;20.40;69.80;;;;;;5074045;28;19999;-83
2022/05/29 07:36:28;;;;;;;;;;;20.30;69.60;;;;;;5072680;28;19913;-84
2022/05/29 07:38:54;;;;;;;;;;;21.00;69.10;;;;;;5075722;28;19913;-83
2022/05/29 07:44:04;;;;;;;;;;;21.20;67.90;;;;;;5073550;28;19951;-83
2022/05/29 07:46:30;;;;;;;;;;;21.20;68.00;;;;;;5074592;28;19920;-83
2022/05/29 07:48:55;;;;;;;;;;;22.00;53.30;;;;;;5076614;28;20287;-84
2022/05/29 07:51:21;;;;;;;;;;;23.70;65.00;;;;;;5073599;28;20372;-85
2022/05/29 07:53:46;;;;;;;;;;;24.30;48.40;;;;;;5074317;28;19920;-84
2022/05/29 07:56:16;;;;;;;;;;;24.50;55.40;;;;;;5075225;28;19913;-84
2022/05/29 07:58:42;;;;;;;;;;;24.40;63.60;;;;;;5074996;28;19913;-84
2022/05/29 08:01:07;;;;;;;;;;;24.40;63.90;;;;;;5078846;28;19918;-83
2022/05/29 08:03:33;;;;;;;;;;;24.80;64.00;;;;;;5074387;28;19908;-85
2022/05/29 08:05:58;;;;;;;;;;;24.50;60.60;;;;;;5078794;28;19946;-82
2022/05/29 08:08:24;;;;;;;;;;;24.70;62.20;;;;;;5073019;28;19923;-82
2022/05/29 08:10:50;;;;;;;;;;;24.90;63.60;;;;;;5075506;28;19919;-81
2022/05/29 08:13:16;;;;;;;;;;;25.00;63.20;;;;;;5075175;28;19959;-80
2022/05/29 08:15:42;;;;;;;;;;;25.10;61.70;;;;;;5077063;28;19912;-86
2022/05/29 08:18:09;;;;;;;;;;;25.10;62.40;;;;;;5077077;28;19919;-85
2022/05/29 08:20:36;;;;;;;;;;;25.30;61.20;;;;;;5074549;28;20414;-84
2022/05/29 08:23:03;;;;;;;;;;;25.80;60.70;;;;;;5078166;28;19930;-80
2022/05/29 08:30:37;;;;;;;;;;;26.70;61.70;;;;;;5049186;28;19932;-82
2022/05/29 08:31:27;;;;;;;;;;;26.90;59.90;;;;;;5081006;28;20485;-83
2022/05/29 08:33:52;;;;;;;;;;;26.20;61.00;;;;;;5087317;28;19909;-82
2022/05/29 08:36:21;;;;;;;;;;;25.80;61.50;;;;;;5076788;28;19912;-84
2022/05/29 08:38:47;;;;;;;;;;;25.20;62.70;;;;;;5077592;28;20004;-81
2022/05/29 08:41:22;;;;;;;;;;;24.80;63.70;;;;;;5074382;28;20394;-83
2022/05/29 08:43:48;;;;;;;;;;;24.20;64.50;;;;;;5073166;28;20008;-82
2022/05/29 08:46:23;;;;;;;;;;;24.00;65.60;;;;;;5073563;28;19935;-83
2022/05/29 08:48:51;;;;;;;;;;;23.70;66.60;;;;;;5072792;28;20363;-82
2022/05/29 08:51:19;;;;;;;;;;;23.40;66.80;;;;;;5073920;28;19947;-81
2022/05/29 08:53:51;;;;;;;;;;;23.30;67.00;;;;;;5073665;28;19909;-81
2022/05/29 08:56:21;;;;;;;;;;;23.30;67.50;;;;;;5072992;28;19924;-79
2022/05/29 08:59:07;;;;;;;;;;;23.10;67.80;;;;;;5073875;28;19909;-80
2022/05/29 09:01:32;;;;;;;;;;;22.90;67.70;;;;;;5074112;28;19912;-82
2022/05/29 09:04:03;;;;;;;;;;;22.90;67.80;;;;;;5069502;28;19920;-81
2022/05/29 09:06:35;;;;;;;;;;;22.80;67.20;;;;;;5071740;28;20003;-80
2022/05/29 09:09:18;;;;;;;;;;;22.70;67.40;;;;;;5071907;28;19912;-80
2022/05/29 09:11:52;;;;;;;;;;;22.60;67.60;;;;;;5073783;28;19908;-79
2022/05/29 09:14:17;;;;;;;;;;;22.50;67.60;;;;;;5074161;28;20284;-80
2022/05/29 09:16:49;;;;;;;;;;;22.70;68.50;;;;;;5073792;28;19987;-79
2022/05/29 09:19:17;;;;;;;;;;;22.40;67.50;;;;;;5072980;28;19920;-79
2022/05/29 09:21:54;;;;;;;;;;;22.30;67.70;;;;;;5072986;28;19951;-79
2022/05/29 09:24:38;;;;;;;;;;;22.30;68.10;;;;;;5073420;28;19912;-78
2022/05/29 09:27:03;;;;;;;;;;;22.20;68.30;;;;;;5071161;28;19917;-79
2022/05/29 09:29:30;;;;;;;;;;;22.20;68.40;;;;;;5071356;28;20433;-79
2022/05/29 09:31:56;;;;;;;;;;;22.20;67.90;;;;;;5074014;28;19938;-82
2022/05/29 09:34:21;;;;;;;;;;;22.40;67.80;;;;;;5074053;28;20468;-80
2022/05/29 09:36:56;;;;;;;;;;;22.60;68.20;;;;;;5075326;28;19963;-82
2022/05/29 09:39:35;;;;;;;;;;;22.40;67.80;;;;;;5073432;28;19909;-82
2022/05/29 09:42:03;;;;;;;;;;;22.10;67.40;;;;;;5075846;28;19916;-80
2022/05/29 09:44:29;;;;;;;;;;;22.10;67.40;;;;;;5073857;28;20003;-79
2022/05/29 09:49:40;;;;;;;;;;;22.40;68.20;;;;;;5074138;28;20043;-79
2022/05/29 09:49:40;;;;;;;;;;;22.30;67.70;;;;;;5074019;28;19917;-79
2022/05/29 09:52:26;;;;;;;;;;;22.30;68.30;;;;;;5073292;28;20294;-81
2022/05/29 09:54:56;;;;;;;;;;;22.70;66.50;;;;;;5071915;28;20372;-80
2022/05/29 09:57:25;;;;;;;;;;;23.20;65.30;;;;;;5070566;28;19927;-80
2022/05/29 10:00:00;;;;;;;;;;;23.30;65.80;;;;;;5070672;28;19959;-79
2022/05/29 10:02:27;;;;;;;;;;;23.40;65.70;;;;;;5074152;28;19916;-81
2022/05/29 10:04:55;;;;;;;;;;;23.40;65.40;;;;;;5076858;28;19965;-81
2022/05/29 10:07:28;;;;;;;;;;;23.40;65.70;;;;;;5074216;28;19915;-81
2022/05/29 10:09:56;;;;;;;;;;;23.80;65.90;;;;;;5072844;28;19908;-80
2022/05/29 10:12:25;;;;;;;;;;;23.30;65.60;;;;;;5073293;28;20046;-81
2022/05/29 10:14:51;;;;;;;;;;;23.40;65.80;;;;;;5079249;28;19912;-82
2022/05/29 10:17:32;;;;;;;;;;;23.40;66.20;;;;;;5080830;28;19919;-79
2022/05/29 10:19:57;;;;;;;;;;;23.50;65.90;;;;;;5081958;28;19909;-80
2022/05/29 10:22:27;;;;;;;;;;;23.50;65.70;;;;;;5084434;28;19939;-80
2022/05/29 10:24:54;;;;;;;;;;;23.60;65.90;;;;;;5084494;28;19916;-80
2022/05/29 10:27:22;;;;;;;;;;;23.50;65.50;;;;;;5079630;28;19973;-79
2022/05/29 10:29:52;;;;;;;;;;;23.40;65.50;;;;;;5079775;28;19912;-81
2022/05/29 10:32:22;;;;;;;;;;;23.60;65.50;;;;;;5081363;28;19990;-80
2022/05/29 10:34:48;;;;;;;;;;;23.60;65.40;;;;;;5079166;28;20392;-80
2022/05/29 10:37:35;;;;;;;;;;;23.60;65.50;;;;;;5073104;28;19919;-80
2022/05/29 10:40:14;;;;;;;;;;;23.70;65.90;;;;;;5073302;28;19987;-81
2022/05/29 10:42:43;;;;;;;;;;;23.70;65.40;;;;;;5071379;28;19978;-80
2022/05/29 10:45:15;;;;;;;;;;;23.80;65.10;;;;;;5072169;28;19970;-81
2022/05/29 10:47:47;;;;;;;;;;;23.90;64.90;;;;;;5083817;28;20367;-80
2022/05/29 10:50:36;;;;;;;;;;;24.10;64.80;;;;;;5095699;28;19912;-80
2022/05/29 10:53:07;;;;;;;;;;;23.90;64.60;;;;;;5067302;28;19909;-81
2022/05/29 10:55:32;;;;;;;;;;;23.80;64.80;;;;;;5095719;28;19958;-81
2022/05/29 10:57:58;;;;;;;;;;;23.80;65.00;;;;;;5087784;28;20375;-80
2022/05/29 11:00:26;;;;;;;;;;;23.90;65.10;;;;;;5079029;28;19917;-80
2022/05/29 11:03:18;;;;;;;;;;;23.80;64.80;;;;;;5077082;28;20372;-80
2022/05/29 11:06:02;;;;;;;;;;;23.80;65.00;;;;;;5071037;28;19920;-81
2022/05/29 11:08:43;;;;;;;;;;;23.80;64.60;;;;;;5075128;28;20552;-81
2022/05/29 11:11:25;;;;;;;;;;;23.90;64.80;;;;;;5076721;28;19915;-80
2022/05/29 11:13:51;;;;;;;;;;;23.80;64.80;;;;;;5076182;28;19912;-80
2022/05/29 11:16:25;;;;;;;;;;;23.80;65.10;;;;;;5075033;28;19961;-81
2022/05/29 11:18:58;;;;;;;;;;;23.70;65.10;;;;;;5075068;28;19916;-81
2022/05/29 11:21:24;;;;;;;;;;;23.60;65.30;;;;;;5074111;28;19916;-82
2022/05/29 11:23:52;;;;;;;;;;;23.60;65.20;;;;;;5073991;28;19912;-81
2022/05/29 11:26:21;;;;;;;;;;;23.60;65.10;;;;;;5073711;28;19924;-81
2022/05/29 11:29:05;;;;;;;;;;;23.70;65.00;;;;;;5075066;28;20380;-80
2022/05/29 11:31:34;;;;;;;;;;;23.70;65.00;;;;;;5073886;28;20371;-80
2022/05/29 11:34:26;;;;;;;;;;;23.70;65.00;;;;;;5075749;28;19915;-81
2022/05/29 11:36:51;;;;;;;;;;;23.70;64.90;;;;;;5070777;28;19958;-81
2022/05/29 11:39:31;;;;;;;;;;;23.60;65.10;;;;;;5075678;28;20011;-81
2022/05/29 11:42:09;;;;;;;;;;;23.60;65.30;;;;;;5074590;28;19915;-79
2022/05/29 11:44:34;;;;;;;;;;;23.70;65.60;;;;;;5073602;28;19909;-80
2022/05/29 11:52:57;;;;;;;;;;;23.60;65.40;;;;;;5075950;28;19916;-80
2022/05/29 11:55:25;;;;;;;;;;;23.50;65.30;;;;;;5075407;28;19916;-80
2022/05/29 11:57:53;;;;;;;;;;;23.60;65.50;;;;;;5074412;28;19916;-80
2022/05/29 12:00:19;;;;;;;;;;;23.60;65.30;;;;;;5075793;28;19995;-80
2022/05/29 12:03:03;;;;;;;;;;;23.60;65.30;;;;;;5076415;28;19970;-80
2022/05/29 12:05:35;;;;;;;;;;;23.50;65.30;;;;;;5073767;28;20364;-80
2022/05/29 12:08:03;;;;;;;;;;;23.50;65.80;;;;;;5073063;28;19961;-81
2022/05/29 12:10:32;;;;;;;;;;;23.50;65.80;;;;;;5072788;28;19920;-80
2022/05/29 12:13:03;;;;;;;;;;;23.50;66.00;;;;;;5073910;28;19908;-81
2022/05/29 12:15:30;;;;;;;;;;;23.50;65.90;;;;;;5073644;28;19944;-80
2022/05/29 12:18:04;;;;;;;;;;;23.60;66.10;;;;;;5074847;28;20370;-81
2022/05/29 12:20:38;;;;;;;;;;;23.50;65.80;;;;;;5073652;28;19916;-81
2022/05/29 12:23:26;;;;;;;;;;;23.50;66.00;;;;;;5074949;28;19909;-81
2022/05/29 12:26:06;;;;;;;;;;;23.40;66.10;;;;;;5066187;28;20315;-81
2022/05/29 12:28:45;;;;;;;;;;;23.40;66.20;;;;;;5075135;28;20372;-80
2022/05/29 12:31:22;;;;;;;;;;;23.30;66.10;;;;;;5072883;28;19908;-80
2022/05/29 12:33:48;;;;;;;;;;;23.40;66.30;;;;;;5073902;28;19912;-80
2022/05/29 12:36:13;;;;;;;;;;;23.30;66.40;;;;;;5073576;28;19916;-82
2022/05/29 12:38:41;;;;;;;;;;;23.50;66.60;;;;;;5073735;28;20038;-81
2022/05/29 12:41:18;;;;;;;;;;;23.30;66.50;;;;;;5072249;28;19979;-81
2022/05/29 12:44:02;;;;;;;;;;;23.30;66.40;;;;;;5072533;28;20295;-81
2022/05/29 12:46:46;;;;;;;;;;;23.30;66.30;;;;;;5074588;28;20348;-81
2022/05/29 12:49:12;;;;;;;;;;;23.30;66.10;;;;;;5073884;28;19912;-81
2022/05/29 12:51:53;;;;;;;;;;;23.40;66.20;;;;;;5072291;28;19913;-81
2022/05/29 12:54:37;;;;;;;;;;;23.30;65.90;;;;;;5074618;28;20374;-81
2022/05/29 12:57:22;;;;;;;;;;;23.30;66.00;;;;;;5076562;28;20364;-82
2022/05/29 13:00:03;;;;;;;;;;;23.30;66.10;;;;;;5087197;28;19912;-81
2022/05/29 13:02:41;;;;;;;;;;;23.20;66.20;;;;;;5083639;28;19912;-81
2022/05/29 13:05:12;;;;;;;;;;;23.20;66.50;;;;;;5093889;28;19962;-81
2022/05/29 13:07:47;;;;;;;;;;;23.10;66.30;;;;;;5091833;28;19918;-81
2022/05/29 13:10:16;;;;;;;;;;;23.10;66.50;;;;;;5092364;28;19918;-81
2022/05/29 13:12:44;;;;;;;;;;;23.10;66.50;;;;;;5086215;28;19918;-81
2022/05/29 13:15:12;;;;;;;;;;;23.10;66.60;;;;;;5091354;28;19908;-81
2022/05/29 13:17:39;;;;;;;;;;;23.30;66.70;;;;;;5092272;28;19938;-81
2022/05/29 13:20:08;;;;;;;;;;;23.40;66.70;;;;;;5090275;28;19908;-81
2022/05/29 13:22:52;;;;;;;;;;;23.30;66.50;;;;;;5087663;28;20323;-81
2022/05/29 13:25:23;;;;;;;;;;;23.20;66.50;;;;;;5075592;28;19919;-81
2022/05/29 13:27:49;;;;;;;;;;;23.10;66.60;;;;;;5074390;28;19913;-81
2022/05/29 13:30:39;;;;;;;;;;;23.20;66.80;;;;;;5077029;28;19912;-81
2022/05/29 13:33:23;;;;;;;;;;;23.10;66.50;;;;;;5075782;28;19908;-82
2022/05/29 13:35:49;;;;;;;;;;;23.10;66.60;;;;;;5075696;28;19912;-83
2022/05/29 13:38:34;;;;;;;;;;;23.00;66.80;;;;;;5075392;28;20317;-84
2022/05/29 13:41:03;;;;;;;;;;;23.20;67.10;;;;;;5079415;28;19916;-82
2022/05/29 13:43:29;;;;;;;;;;;22.90;66.90;;;;;;5074686;28;19943;-83
2022/05/29 13:45:56;;;;;;;;;;;23.00;66.90;;;;;;5074561;28;20440;-83
2022/05/29 13:48:26;;;;;;;;;;;23.00;67.20;;;;;;5073658;28;19984;-84
2022/05/29 13:51:01;;;;;;;;;;;23.00;67.20;;;;;;5073308;28;20379;-84
2022/05/29 13:53:32;;;;;;;;;;;22.90;67.10;;;;;;5071808;28;20368;-83
2022/05/29 13:56:02;;;;;;;;;;;22.90;67.10;;;;;;5072048;28;19938;-84
2022/05/29 14:04:30;;;;;;;;;;;23.00;67.00;;;;;;5069553;28;19919;-84
2022/05/29 14:07:08;;;;;;;;;;;23.10;67.40;;;;;;5071025;28;19912;-83
2022/05/29 14:09:33;;;;;;;;;;;23.10;67.20;;;;;;5071114;28;19905;-84
2022/05/29 14:12:06;;;;;;;;;;;23.60;67.80;;;;;;5071515;28;19931;-83
2022/05/29 14:14:34;;;;;;;;;;;23.00;67.30;;;;;;5072168;28;19922;-82
2022/05/29 14:17:09;;;;;;;;;;;23.10;67.30;;;;;;5069591;28;19962;-81
2022/05/29 14:19:50;;;;;;;;;;;23.00;67.40;;;;;;5070067;28;19916;-81
2022/05/29 14:22:36;;;;;;;;;;;23.10;67.40;;;;;;5075281;28;19912;-81
2022/05/29 14:25:06;;;;;;;;;;;23.00;67.60;;;;;;5074779;28;19916;-83
2022/05/29 14:27:38;;;;;;;;;;;23.00;67.30;;;;;;5075051;28;19966;-82
2022/05/29 14:30:18;;;;;;;;;;;22.90;67.50;;;;;;5076222;28;19915;-83
2022/05/29 14:32:52;;;;;;;;;;;22.90;67.50;;;;;;5079548;28;20003;-82
2022/05/29 14:35:17;;;;;;;;;;;22.90;67.60;;;;;;5075235;28;19912;-79
2022/05/29 14:37:44;;;;;;;;;;;23.00;68.00;;;;;;5077553;28;20257;-82
2022/05/29 14:40:19;;;;;;;;;;;23.00;67.30;;;;;;5076959;28;19909;-83
2022/05/29 14:42:45;;;;;;;;;;;23.00;68.00;;;;;;5079358;28;20268;-83
2022/05/29 14:45:13;;;;;;;;;;;22.90;68.10;;;;;;5074407;28;19913;-80
2022/05/29 14:47:52;;;;;;;;;;;22.90;68.10;;;;;;5076193;28;19916;-81
2022/05/29 14:50:37;;;;;;;;;;;22.70;67.70;;;;;;5075190;28;20267;-81
2022/05/29 14:53:03;;;;;;;;;;;22.70;67.90;;;;;;5045592;28;19908;-81
2022/05/29 14:55:37;;;;;;;;;;;22.80;68.20;;;;;;5076228;28;20429;-84
2022/05/29 14:58:03;;;;;;;;;;;22.80;68.10;;;;;;5074057;28;19923;-85
2022/05/29 15:00:36;;;;;;;;;;;22.90;68.30;;;;;;5072833;28;19908;-85
2022/05/29 15:03:08;;;;;;;;;;;22.90;68.30;;;;;;5072905;28;19908;-82
2022/05/29 15:05:34;;;;;;;;;;;23.40;69.20;;;;;;5072382;28;20019;-81
2022/05/29 15:10:53;;;;;;;;;;;23.10;68.50;;;;;;5073813;28;20046;-81